sensor_id;sensor_type;location;lat;lon;timestamp;P1;durP1;ratioP1;P2;durP2;ratioP2
11125;SDS011;5617;54.046;10.676;2022-09-12T00:01:24;2.90;;;2.10;;
11125;SDS011;5617;54.046;10.676;2022-09-12T00:03:33;2.10;;;2.00;;
11125;SDS011;5617;54.046;10.676;2022-09-12T00:05:41;2.50;;;2.07;;
11125;SDS011;5617;54.046;10.676;2022-09-12T00:07:49;2.50;;;2.07;;
11125;SDS011;5617;54.046;10.676;2022-09-12T00:09:57;1.93;;;1.70;;
11125;SDS011;5617;54.046;10.676;2022-09-12T00:12:04;2.30;;;1.80;;
11125;SDS011;5617;54.046;10.676;2022-09-12T00:14:13;2.17;;;1.97;;
11125;SDS011;5617;54.046;10.676;2022-09-12T00:16:22;3.03;;;1.90;;
11125;SDS011;5617;54.046;10.676;2022-09-12T00:18:33;3.17;;;2.10;;
11125;SDS011;5617;54.046;10.676;2022-09-12T00:20:45;2.23;;;1.80;;
11125;SDS011;5617;54.046;10.676;2022-09-12T00:22:53;2.47;;;1.90;;
11125;SDS011;5617;54.046;10.676;2022-09-12T00:25:00;2.30;;;2.10;;
11125;SDS011;5617;54.046;10.676;2022-09-12T00:27:08;2.10;;;2.00;;
11125;SDS011;5617;54.046;10.676;2022-09-12T00:29:16;2.80;;;1.93;;
11125;SDS011;5617;54.046;10.676;2022-09-12T00:31:25;2.23;;;1.90;;
11125;SDS011;5617;54.046;10.676;2022-09-12T00:33:35;2.07;;;1.83;;
11125;SDS011;5617;54.046;10.676;2022-09-12T00:35:43;2.30;;;2.10;;
11125;SDS011;5617;54.046;10.676;2022-09-12T00:37:53;2.23;;;2.03;;
11125;SDS011;5617;54.046;10.676;2022-09-12T00:40:01;2.00;;;1.80;;
11125;SDS011;5617;54.046;10.676;2022-09-12T00:42:09;2.00;;;1.90;;
11125;SDS011;5617;54.046;10.676;2022-09-12T00:47:02;2.47;;;2.17;;
11125;SDS011;5617;54.046;10.676;2022-09-12T00:49:14;2.90;;;2.10;;
11125;SDS011;5617;54.046;10.676;2022-09-12T00:51:24;1.80;;;1.70;;
11125;SDS011;5617;54.046;10.676;2022-09-12T00:53:33;1.70;;;1.60;;
11125;SDS011;5617;54.046;10.676;2022-09-12T00:55:41;1.93;;;1.83;;
11125;SDS011;5617;54.046;10.676;2022-09-12T00:57:54;2.80;;;1.60;;
11125;SDS011;5617;54.046;10.676;2022-09-12T01:00:06;1.40;;;1.37;;
11125;SDS011;5617;54.046;10.676;2022-09-12T01:02:20;1.77;;;1.67;;
11125;SDS011;5617;54.046;10.676;2022-09-12T01:04:29;1.60;;;1.50;;
11125;SDS011;5617;54.046;10.676;2022-09-12T01:06:39;1.70;;;1.57;;
11125;SDS011;5617;54.046;10.676;2022-09-12T01:08:47;1.60;;;1.50;;
11125;SDS011;5617;54.046;10.676;2022-09-12T01:10:56;2.03;;;1.50;;
11125;SDS011;5617;54.046;10.676;2022-09-12T01:13:07;1.50;;;1.40;;
11125;SDS011;5617;54.046;10.676;2022-09-12T01:15:16;2.07;;;1.43;;
11125;SDS011;5617;54.046;10.676;2022-09-12T01:17:25;2.17;;;1.70;;
11125;SDS011;5617;54.046;10.676;2022-09-12T01:22:43;1.40;;;1.40;;
11125;SDS011;5617;54.046;10.676;2022-09-12T01:25:17;1.70;;;1.60;;
11125;SDS011;5617;54.046;10.676;2022-09-12T01:30:47;2.00;;;1.90;;
11125;SDS011;5617;54.046;10.676;2022-09-12T01:33:00;1.70;;;1.60;;
11125;SDS011;5617;54.046;10.676;2022-09-12T01:35:23;1.70;;;1.53;;
11125;SDS011;5617;54.046;10.676;2022-09-12T01:37:36;2.07;;;1.40;;
11125;SDS011;5617;54.046;10.676;2022-09-12T01:39:50;1.50;;;1.40;;
11125;SDS011;5617;54.046;10.676;2022-09-12T01:42:07;1.10;;;1.10;;
11125;SDS011;5617;54.046;10.676;2022-09-12T01:44:22;1.70;;;1.60;;
11125;SDS011;5617;54.046;10.676;2022-09-12T01:46:40;1.47;;;1.37;;
11125;SDS011;5617;54.046;10.676;2022-09-12T01:48:52;1.20;;;1.20;;
11125;SDS011;5617;54.046;10.676;2022-09-12T01:51:05;1.20;;;1.20;;
11125;SDS011;5617;54.046;10.676;2022-09-12T01:53:18;1.30;;;1.30;;
11125;SDS011;5617;54.046;10.676;2022-09-12T01:55:29;1.20;;;1.20;;
11125;SDS011;5617;54.046;10.676;2022-09-12T01:57:40;1.10;;;1.10;;
11125;SDS011;5617;54.046;10.676;2022-09-12T01:59:53;1.53;;;1.43;;
11125;SDS011;5617;54.046;10.676;2022-09-12T02:02:07;1.37;;;1.27;;
11125;SDS011;5617;54.046;10.676;2022-09-12T02:04:18;1.10;;;1.10;;
11125;SDS011;5617;54.046;10.676;2022-09-12T02:06:30;3.10;;;1.20;;
11125;SDS011;5617;54.046;10.676;2022-09-12T02:08:41;1.10;;;1.10;;
11125;SDS011;5617;54.046;10.676;2022-09-12T02:10:54;1.33;;;1.27;;
11125;SDS011;5617;54.046;10.676;2022-09-12T02:13:05;1.20;;;1.20;;
11125;SDS011;5617;54.046;10.676;2022-09-12T02:15:16;1.13;;;1.13;;
11125;SDS011;5617;54.046;10.676;2022-09-12T02:17:29;1.50;;;1.40;;
11125;SDS011;5617;54.046;10.676;2022-09-12T02:19:42;1.30;;;1.20;;
11125;SDS011;5617;54.046;10.676;2022-09-12T02:21:54;1.50;;;1.40;;
11125;SDS011;5617;54.046;10.676;2022-09-12T02:24:04;1.67;;;1.20;;
11125;SDS011;5617;54.046;10.676;2022-09-12T02:26:17;1.20;;;1.20;;
11125;SDS011;5617;54.046;10.676;2022-09-12T02:28:29;1.30;;;1.30;;
11125;SDS011;5617;54.046;10.676;2022-09-12T02:30:40;1.37;;;1.30;;
11125;SDS011;5617;54.046;10.676;2022-09-12T02:32:57;1.40;;;1.07;;
11125;SDS011;5617;54.046;10.676;2022-09-12T02:35:08;1.03;;;1.03;;
11125;SDS011;5617;54.046;10.676;2022-09-12T02:37:24;1.10;;;1.10;;
11125;SDS011;5617;54.046;10.676;2022-09-12T02:39:41;1.30;;;1.20;;
11125;SDS011;5617;54.046;10.676;2022-09-12T02:41:49;1.10;;;1.10;;
11125;SDS011;5617;54.046;10.676;2022-09-12T02:43:58;1.13;;;1.13;;
11125;SDS011;5617;54.046;10.676;2022-09-12T02:46:06;1.33;;;1.00;;
11125;SDS011;5617;54.046;10.676;2022-09-12T02:48:19;0.87;;;0.87;;
11125;SDS011;5617;54.046;10.676;2022-09-12T02:50:30;1.63;;;1.10;;
11125;SDS011;5617;54.046;10.676;2022-09-12T02:52:38;1.00;;;1.00;;
11125;SDS011;5617;54.046;10.676;2022-09-12T02:54:47;1.17;;;1.03;;
11125;SDS011;5617;54.046;10.676;2022-09-12T02:56:55;1.23;;;1.10;;
11125;SDS011;5617;54.046;10.676;2022-09-12T02:59:03;0.90;;;0.90;;
11125;SDS011;5617;54.046;10.676;2022-09-12T03:01:15;1.10;;;1.10;;
11125;SDS011;5617;54.046;10.676;2022-09-12T03:03:45;1.20;;;1.10;;
11125;SDS011;5617;54.046;10.676;2022-09-12T03:06:05;1.07;;;1.07;;
11125;SDS011;5617;54.046;10.676;2022-09-12T03:08:22;1.30;;;1.20;;
11125;SDS011;5617;54.046;10.676;2022-09-12T03:13:22;1.00;;;1.00;;
11125;SDS011;5617;54.046;10.676;2022-09-12T03:15:39;1.20;;;1.10;;
11125;SDS011;5617;54.046;10.676;2022-09-12T03:17:57;1.10;;;1.10;;
11125;SDS011;5617;54.046;10.676;2022-09-12T03:20:13;1.20;;;1.20;;
11125;SDS011;5617;54.046;10.676;2022-09-12T03:22:26;1.87;;;1.30;;
11125;SDS011;5617;54.046;10.676;2022-09-12T03:24:41;1.17;;;1.13;;
11125;SDS011;5617;54.046;10.676;2022-09-12T03:26:57;1.20;;;1.20;;
11125;SDS011;5617;54.046;10.676;2022-09-12T03:29:10;1.67;;;1.30;;
11125;SDS011;5617;54.046;10.676;2022-09-12T03:31:20;1.87;;;1.33;;
11125;SDS011;5617;54.046;10.676;2022-09-12T03:33:29;1.20;;;1.20;;
11125;SDS011;5617;54.046;10.676;2022-09-12T03:35:38;1.77;;;1.30;;
11125;SDS011;5617;54.046;10.676;2022-09-12T03:37:46;1.40;;;1.30;;
11125;SDS011;5617;54.046;10.676;2022-09-12T03:39:54;1.33;;;1.23;;
11125;SDS011;5617;54.046;10.676;2022-09-12T03:42:02;1.10;;;1.10;;
11125;SDS011;5617;54.046;10.676;2022-09-12T03:44:09;1.50;;;1.40;;
11125;SDS011;5617;54.046;10.676;2022-09-12T03:46:17;1.63;;;1.20;;
11125;SDS011;5617;54.046;10.676;2022-09-12T03:48:25;1.10;;;1.10;;
11125;SDS011;5617;54.046;10.676;2022-09-12T03:50:32;2.83;;;1.50;;
11125;SDS011;5617;54.046;10.676;2022-09-12T03:52:41;3.27;;;2.50;;
11125;SDS011;5617;54.046;10.676;2022-09-12T03:54:49;1.70;;;1.60;;
11125;SDS011;5617;54.046;10.676;2022-09-12T03:56:56;2.20;;;1.60;;
11125;SDS011;5617;54.046;10.676;2022-09-12T03:59:04;3.07;;;1.33;;
11125;SDS011;5617;54.046;10.676;2022-09-12T04:01:13;1.60;;;1.50;;
11125;SDS011;5617;54.046;10.676;2022-09-12T04:03:22;2.43;;;1.73;;
11125;SDS011;5617;54.046;10.676;2022-09-12T04:05:29;1.90;;;1.80;;
11125;SDS011;5617;54.046;10.676;2022-09-12T04:07:37;1.90;;;1.80;;
11125;SDS011;5617;54.046;10.676;2022-09-12T04:09:46;1.70;;;1.60;;
11125;SDS011;5617;54.046;10.676;2022-09-12T04:11:53;2.10;;;2.00;;
11125;SDS011;5617;54.046;10.676;2022-09-12T04:14:01;2.30;;;2.20;;
11125;SDS011;5617;54.046;10.676;2022-09-12T04:16:08;2.50;;;2.30;;
11125;SDS011;5617;54.046;10.676;2022-09-12T04:18:16;2.90;;;2.70;;
11125;SDS011;5617;54.046;10.676;2022-09-12T04:20:24;2.83;;;2.63;;
11125;SDS011;5617;54.046;10.676;2022-09-12T04:22:32;3.37;;;2.40;;
11125;SDS011;5617;54.046;10.676;2022-09-12T04:24:39;2.90;;;2.60;;
11125;SDS011;5617;54.046;10.676;2022-09-12T04:26:48;2.30;;;2.20;;
11125;SDS011;5617;54.046;10.676;2022-09-12T04:28:55;2.10;;;2.00;;
11125;SDS011;5617;54.046;10.676;2022-09-12T04:31:04;2.50;;;2.30;;
11125;SDS011;5617;54.046;10.676;2022-09-12T04:33:14;2.00;;;1.90;;
11125;SDS011;5617;54.046;10.676;2022-09-12T04:35:21;2.40;;;2.20;;
11125;SDS011;5617;54.046;10.676;2022-09-12T04:37:29;2.30;;;2.10;;
11125;SDS011;5617;54.046;10.676;2022-09-12T04:39:36;2.27;;;2.07;;
11125;SDS011;5617;54.046;10.676;2022-09-12T04:41:44;2.20;;;2.00;;
11125;SDS011;5617;54.046;10.676;2022-09-12T04:43:53;2.07;;;1.97;;
11125;SDS011;5617;54.046;10.676;2022-09-12T04:46:03;2.20;;;2.00;;
11125;SDS011;5617;54.046;10.676;2022-09-12T04:48:12;2.00;;;1.90;;
11125;SDS011;5617;54.046;10.676;2022-09-12T04:50:20;2.30;;;2.10;;
11125;SDS011;5617;54.046;10.676;2022-09-12T04:52:28;2.13;;;1.93;;
11125;SDS011;5617;54.046;10.676;2022-09-12T04:54:35;2.03;;;1.80;;
11125;SDS011;5617;54.046;10.676;2022-09-12T04:56:44;2.10;;;2.00;;
11125;SDS011;5617;54.046;10.676;2022-09-12T04:58:54;3.30;;;2.30;;
11125;SDS011;5617;54.046;10.676;2022-09-12T05:01:03;3.20;;;2.10;;
11125;SDS011;5617;54.046;10.676;2022-09-12T05:03:11;2.97;;;2.70;;
11125;SDS011;5617;54.046;10.676;2022-09-12T05:05:19;2.63;;;2.43;;
11125;SDS011;5617;54.046;10.676;2022-09-12T05:07:26;2.03;;;1.93;;
11125;SDS011;5617;54.046;10.676;2022-09-12T05:09:34;2.23;;;2.13;;
11125;SDS011;5617;54.046;10.676;2022-09-12T05:11:42;6.43;;;2.80;;
11125;SDS011;5617;54.046;10.676;2022-09-12T05:13:50;2.67;;;1.90;;
11125;SDS011;5617;54.046;10.676;2022-09-12T05:16:00;2.40;;;2.10;;
11125;SDS011;5617;54.046;10.676;2022-09-12T05:18:09;2.23;;;2.03;;
11125;SDS011;5617;54.046;10.676;2022-09-12T05:20:16;2.60;;;2.40;;
11125;SDS011;5617;54.046;10.676;2022-09-12T05:22:24;2.60;;;2.40;;
11125;SDS011;5617;54.046;10.676;2022-09-12T05:24:31;2.43;;;2.30;;
11125;SDS011;5617;54.046;10.676;2022-09-12T05:26:39;4.10;;;2.60;;
11125;SDS011;5617;54.046;10.676;2022-09-12T05:28:48;2.60;;;2.40;;
11125;SDS011;5617;54.046;10.676;2022-09-12T05:31:01;3.20;;;2.30;;
11125;SDS011;5617;54.046;10.676;2022-09-12T05:33:09;2.57;;;2.37;;
11125;SDS011;5617;54.046;10.676;2022-09-12T05:35:16;2.87;;;2.67;;
11125;SDS011;5617;54.046;10.676;2022-09-12T05:37:24;2.87;;;2.67;;
11125;SDS011;5617;54.046;10.676;2022-09-12T05:39:32;3.27;;;3.03;;
11125;SDS011;5617;54.046;10.676;2022-09-12T05:41:39;3.30;;;3.00;;
11125;SDS011;5617;54.046;10.676;2022-09-12T05:43:50;3.70;;;3.40;;
11125;SDS011;5617;54.046;10.676;2022-09-12T05:46:03;3.50;;;3.20;;
11125;SDS011;5617;54.046;10.676;2022-09-12T05:48:13;4.90;;;4.47;;
11125;SDS011;5617;54.046;10.676;2022-09-12T05:50:21;5.43;;;5.03;;
11125;SDS011;5617;54.046;10.676;2022-09-12T05:52:30;5.10;;;4.70;;
11125;SDS011;5617;54.046;10.676;2022-09-12T05:54:38;6.37;;;4.80;;
11125;SDS011;5617;54.046;10.676;2022-09-12T05:56:46;5.83;;;5.27;;
11125;SDS011;5617;54.046;10.676;2022-09-12T05:58:54;6.00;;;5.50;;
11125;SDS011;5617;54.046;10.676;2022-09-12T06:01:05;6.60;;;5.83;;
11125;SDS011;5617;54.046;10.676;2022-09-12T06:03:15;6.30;;;5.77;;
11125;SDS011;5617;54.046;10.676;2022-09-12T06:05:23;6.60;;;6.00;;
11125;SDS011;5617;54.046;10.676;2022-09-12T06:07:30;6.90;;;6.33;;
11125;SDS011;5617;54.046;10.676;2022-09-12T06:09:38;6.57;;;6.00;;
11125;SDS011;5617;54.046;10.676;2022-09-12T06:11:46;5.43;;;4.97;;
11125;SDS011;5617;54.046;10.676;2022-09-12T06:13:54;5.40;;;4.87;;
11125;SDS011;5617;54.046;10.676;2022-09-12T06:16:03;4.30;;;3.87;;
11125;SDS011;5617;54.046;10.676;2022-09-12T06:18:13;4.70;;;4.30;;
11125;SDS011;5617;54.046;10.676;2022-09-12T06:20:20;5.13;;;4.73;;
11125;SDS011;5617;54.046;10.676;2022-09-12T06:22:28;6.53;;;5.67;;
11125;SDS011;5617;54.046;10.676;2022-09-12T06:24:35;5.63;;;5.00;;
11125;SDS011;5617;54.046;10.676;2022-09-12T06:26:43;5.40;;;5.00;;
11125;SDS011;5617;54.046;10.676;2022-09-12T06:28:52;6.03;;;5.20;;
11125;SDS011;5617;54.046;10.676;2022-09-12T06:31:01;4.97;;;4.50;;
11125;SDS011;5617;54.046;10.676;2022-09-12T06:33:11;4.73;;;4.30;;
11125;SDS011;5617;54.046;10.676;2022-09-12T06:35:19;4.73;;;4.33;;
11125;SDS011;5617;54.046;10.676;2022-09-12T06:37:26;4.63;;;4.33;;
11125;SDS011;5617;54.046;10.676;2022-09-12T06:39:33;5.00;;;4.50;;
11125;SDS011;5617;54.046;10.676;2022-09-12T06:41:43;5.30;;;4.80;;
11125;SDS011;5617;54.046;10.676;2022-09-12T06:43:51;4.60;;;4.20;;
11125;SDS011;5617;54.046;10.676;2022-09-12T06:45:59;4.50;;;4.10;;
11125;SDS011;5617;54.046;10.676;2022-09-12T06:48:07;4.80;;;4.30;;
11125;SDS011;5617;54.046;10.676;2022-09-12T06:50:16;4.47;;;3.67;;
11125;SDS011;5617;54.046;10.676;2022-09-12T06:52:23;4.83;;;4.43;;
11125;SDS011;5617;54.046;10.676;2022-09-12T06:54:31;4.70;;;4.20;;
11125;SDS011;5617;54.046;10.676;2022-09-12T06:56:39;4.33;;;3.90;;
11125;SDS011;5617;54.046;10.676;2022-09-12T06:58:46;4.20;;;3.80;;
11125;SDS011;5617;54.046;10.676;2022-09-12T07:00:59;4.37;;;4.07;;
11125;SDS011;5617;54.046;10.676;2022-09-12T07:03:11;4.27;;;3.87;;
11125;SDS011;5617;54.046;10.676;2022-09-12T07:05:20;4.20;;;3.80;;
11125;SDS011;5617;54.046;10.676;2022-09-12T07:07:28;3.70;;;3.40;;
11125;SDS011;5617;54.046;10.676;2022-09-12T07:09:39;4.57;;;3.70;;
11125;SDS011;5617;54.046;10.676;2022-09-12T07:11:46;3.83;;;3.53;;
11125;SDS011;5617;54.046;10.676;2022-09-12T07:13:54;3.53;;;3.33;;
11125;SDS011;5617;54.046;10.676;2022-09-12T07:16:02;3.87;;;3.57;;
11125;SDS011;5617;54.046;10.676;2022-09-12T07:18:11;3.60;;;3.30;;
11125;SDS011;5617;54.046;10.676;2022-09-12T07:20:19;4.37;;;3.30;;
11125;SDS011;5617;54.046;10.676;2022-09-12T07:22:28;3.43;;;3.13;;
11125;SDS011;5617;54.046;10.676;2022-09-12T07:24:35;3.57;;;3.27;;
11125;SDS011;5617;54.046;10.676;2022-09-12T07:26:43;3.20;;;3.00;;
11125;SDS011;5617;54.046;10.676;2022-09-12T07:28:52;2.97;;;2.77;;
11125;SDS011;5617;54.046;10.676;2022-09-12T07:31:04;3.30;;;3.10;;
11125;SDS011;5617;54.046;10.676;2022-09-12T07:33:14;3.10;;;2.80;;
11125;SDS011;5617;54.046;10.676;2022-09-12T07:35:23;2.87;;;2.70;;
11125;SDS011;5617;54.046;10.676;2022-09-12T07:37:31;2.97;;;2.70;;
11125;SDS011;5617;54.046;10.676;2022-09-12T07:39:38;2.80;;;2.50;;
11125;SDS011;5617;54.046;10.676;2022-09-12T07:41:46;2.60;;;2.40;;
11125;SDS011;5617;54.046;10.676;2022-09-12T07:43:54;2.30;;;2.20;;
11125;SDS011;5617;54.046;10.676;2022-09-12T07:46:03;2.10;;;1.83;;
11125;SDS011;5617;54.046;10.676;2022-09-12T07:48:10;2.60;;;2.40;;
11125;SDS011;5617;54.046;10.676;2022-09-12T07:50:18;2.13;;;2.00;;
11125;SDS011;5617;54.046;10.676;2022-09-12T07:52:27;1.90;;;1.70;;
11125;SDS011;5617;54.046;10.676;2022-09-12T07:54:34;2.20;;;2.00;;
11125;SDS011;5617;54.046;10.676;2022-09-12T07:56:42;2.97;;;2.10;;
11125;SDS011;5617;54.046;10.676;2022-09-12T07:58:50;2.00;;;1.90;;
11125;SDS011;5617;54.046;10.676;2022-09-12T08:01:01;2.00;;;1.50;;
11125;SDS011;5617;54.046;10.676;2022-09-12T08:03:09;2.00;;;1.63;;
11125;SDS011;5617;54.046;10.676;2022-09-12T08:05:17;1.70;;;1.60;;
11125;SDS011;5617;54.046;10.676;2022-09-12T08:07:25;1.60;;;1.50;;
11125;SDS011;5617;54.046;10.676;2022-09-12T08:09:34;1.63;;;1.53;;
11125;SDS011;5617;54.046;10.676;2022-09-12T08:11:41;2.77;;;1.80;;
11125;SDS011;5617;54.046;10.676;2022-09-12T08:13:49;1.60;;;1.50;;
11125;SDS011;5617;54.046;10.676;2022-09-12T08:15:57;2.60;;;1.50;;
11125;SDS011;5617;54.046;10.676;2022-09-12T08:18:05;1.67;;;1.57;;
11125;SDS011;5617;54.046;10.676;2022-09-12T08:20:13;1.70;;;1.60;;
11125;SDS011;5617;54.046;10.676;2022-09-12T08:22:20;1.60;;;1.50;;
11125;SDS011;5617;54.046;10.676;2022-09-12T08:24:28;2.20;;;1.60;;
11125;SDS011;5617;54.046;10.676;2022-09-12T08:26:38;2.13;;;1.60;;
11125;SDS011;5617;54.046;10.676;2022-09-12T08:28:45;1.40;;;1.30;;
11125;SDS011;5617;54.046;10.676;2022-09-12T08:30:58;1.60;;;1.50;;
11125;SDS011;5617;54.046;10.676;2022-09-12T08:33:06;2.17;;;1.50;;
11125;SDS011;5617;54.046;10.676;2022-09-12T08:35:14;1.40;;;1.30;;
11125;SDS011;5617;54.046;10.676;2022-09-12T08:37:22;1.47;;;1.37;;
11125;SDS011;5617;54.046;10.676;2022-09-12T08:39:29;2.10;;;1.27;;
11125;SDS011;5617;54.046;10.676;2022-09-12T08:41:39;4.57;;;1.40;;
11125;SDS011;5617;54.046;10.676;2022-09-12T08:43:53;1.20;;;1.10;;
11125;SDS011;5617;54.046;10.676;2022-09-12T08:46:18;1.30;;;1.20;;
11125;SDS011;5617;54.046;10.676;2022-09-12T08:48:30;1.73;;;1.23;;
11125;SDS011;5617;54.046;10.676;2022-09-12T08:50:37;1.37;;;1.20;;
11125;SDS011;5617;54.046;10.676;2022-09-12T08:52:50;1.47;;;1.37;;
11125;SDS011;5617;54.046;10.676;2022-09-12T08:55:04;1.43;;;1.33;;
11125;SDS011;5617;54.046;10.676;2022-09-12T08:57:21;1.60;;;1.50;;
11125;SDS011;5617;54.046;10.676;2022-09-12T08:59:30;1.50;;;1.40;;
11125;SDS011;5617;54.046;10.676;2022-09-12T09:01:44;2.23;;;1.20;;
11125;SDS011;5617;54.046;10.676;2022-09-12T09:06:27;1.30;;;1.20;;
11125;SDS011;5617;54.046;10.676;2022-09-12T09:08:48;1.30;;;1.07;;
11125;SDS011;5617;54.046;10.676;2022-09-12T09:11:09;1.60;;;1.37;;
11125;SDS011;5617;54.046;10.676;2022-09-12T09:13:32;1.43;;;1.20;;
11125;SDS011;5617;54.046;10.676;2022-09-12T09:16:10;1.30;;;1.20;;
11125;SDS011;5617;54.046;10.676;2022-09-12T09:18:26;1.73;;;1.20;;
11125;SDS011;5617;54.046;10.676;2022-09-12T09:20:39;1.40;;;1.30;;
11125;SDS011;5617;54.046;10.676;2022-09-12T09:22:52;1.47;;;1.20;;
11125;SDS011;5617;54.046;10.676;2022-09-12T09:25:04;1.17;;;1.00;;
11125;SDS011;5617;54.046;10.676;2022-09-12T09:27:19;1.40;;;1.30;;
11125;SDS011;5617;54.046;10.676;2022-09-12T09:29:38;1.83;;;1.23;;
11125;SDS011;5617;54.046;10.676;2022-09-12T09:31:50;1.03;;;1.00;;
11125;SDS011;5617;54.046;10.676;2022-09-12T09:34:00;1.30;;;1.20;;
11125;SDS011;5617;54.046;10.676;2022-09-12T09:36:19;1.23;;;1.10;;
11125;SDS011;5617;54.046;10.676;2022-09-12T09:38:32;0.90;;;0.90;;
11125;SDS011;5617;54.046;10.676;2022-09-12T09:40:50;1.10;;;1.03;;
11125;SDS011;5617;54.046;10.676;2022-09-12T09:43:10;1.10;;;1.00;;
11125;SDS011;5617;54.046;10.676;2022-09-12T09:45:29;3.30;;;1.23;;
11125;SDS011;5617;54.046;10.676;2022-09-12T09:47:37;4.83;;;1.40;;
11125;SDS011;5617;54.046;10.676;2022-09-12T09:49:45;1.30;;;1.20;;
11125;SDS011;5617;54.046;10.676;2022-09-12T09:51:52;1.20;;;1.10;;
11125;SDS011;5617;54.046;10.676;2022-09-12T09:54:02;1.57;;;1.20;;
11125;SDS011;5617;54.046;10.676;2022-09-12T09:56:25;1.30;;;1.20;;
11125;SDS011;5617;54.046;10.676;2022-09-12T09:58:34;1.50;;;1.23;;
11125;SDS011;5617;54.046;10.676;2022-09-12T10:00:44;1.27;;;1.17;;
11125;SDS011;5617;54.046;10.676;2022-09-12T10:02:59;1.70;;;1.60;;
11125;SDS011;5617;54.046;10.676;2022-09-12T10:05:15;1.27;;;1.20;;
11125;SDS011;5617;54.046;10.676;2022-09-12T10:07:23;1.97;;;1.10;;
11125;SDS011;5617;54.046;10.676;2022-09-12T10:09:33;1.53;;;1.43;;
11125;SDS011;5617;54.046;10.676;2022-09-12T10:11:42;1.30;;;1.03;;
11125;SDS011;5617;54.046;10.676;2022-09-12T10:13:52;2.37;;;1.40;;
11125;SDS011;5617;54.046;10.676;2022-09-12T10:16:05;6.43;;;1.80;;
11125;SDS011;5617;54.046;10.676;2022-09-12T10:18:34;1.57;;;1.37;;
11125;SDS011;5617;54.046;10.676;2022-09-12T10:20:43;14.10;;;3.47;;
11125;SDS011;5617;54.046;10.676;2022-09-12T10:22:51;9.87;;;2.47;;
11125;SDS011;5617;54.046;10.676;2022-09-12T10:24:59;3.60;;;1.40;;
11125;SDS011;5617;54.046;10.676;2022-09-12T10:27:13;2.57;;;1.30;;
11125;SDS011;5617;54.046;10.676;2022-09-12T10:29:23;1.43;;;1.30;;
11125;SDS011;5617;54.046;10.676;2022-09-12T10:31:40;1.27;;;1.27;;
11125;SDS011;5617;54.046;10.676;2022-09-12T10:33:50;2.97;;;1.00;;
11125;SDS011;5617;54.046;10.676;2022-09-12T10:35:58;2.20;;;1.60;;
11125;SDS011;5617;54.046;10.676;2022-09-12T10:38:19;1.50;;;1.40;;
11125;SDS011;5617;54.046;10.676;2022-09-12T10:40:30;1.10;;;1.00;;
11125;SDS011;5617;54.046;10.676;2022-09-12T10:42:46;1.17;;;1.17;;
11125;SDS011;5617;54.046;10.676;2022-09-12T10:44:58;1.60;;;1.20;;
11125;SDS011;5617;54.046;10.676;2022-09-12T10:47:20;1.00;;;0.90;;
11125;SDS011;5617;54.046;10.676;2022-09-12T10:49:29;1.97;;;1.40;;
11125;SDS011;5617;54.046;10.676;2022-09-12T10:51:45;1.27;;;1.10;;
11125;SDS011;5617;54.046;10.676;2022-09-12T10:53:54;1.23;;;1.13;;
11125;SDS011;5617;54.046;10.676;2022-09-12T10:56:06;1.27;;;1.17;;
11125;SDS011;5617;54.046;10.676;2022-09-12T10:58:20;1.47;;;1.13;;
11125;SDS011;5617;54.046;10.676;2022-09-12T11:00:54;1.43;;;1.10;;
11125;SDS011;5617;54.046;10.676;2022-09-12T11:03:14;1.30;;;1.20;;
11125;SDS011;5617;54.046;10.676;2022-09-12T11:05:31;1.20;;;1.10;;
11125;SDS011;5617;54.046;10.676;2022-09-12T11:07:47;1.30;;;1.20;;
11125;SDS011;5617;54.046;10.676;2022-09-12T11:10:00;1.10;;;1.00;;
11125;SDS011;5617;54.046;10.676;2022-09-12T11:12:18;1.43;;;1.33;;
11125;SDS011;5617;54.046;10.676;2022-09-12T11:14:37;1.30;;;1.20;;
11125;SDS011;5617;54.046;10.676;2022-09-12T11:16:53;2.93;;;1.17;;
11125;SDS011;5617;54.046;10.676;2022-09-12T11:19:17;1.10;;;1.00;;
11125;SDS011;5617;54.046;10.676;2022-09-12T11:21:43;1.17;;;1.17;;
11125;SDS011;5617;54.046;10.676;2022-09-12T11:24:05;2.07;;;1.30;;
11125;SDS011;5617;54.046;10.676;2022-09-12T11:26:27;1.57;;;0.90;;
11125;SDS011;5617;54.046;10.676;2022-09-12T11:28:45;16.07;;;3.30;;
11125;SDS011;5617;54.046;10.676;2022-09-12T11:31:05;3.27;;;1.10;;
11125;SDS011;5617;54.046;10.676;2022-09-12T11:33:28;1.13;;;1.10;;
11125;SDS011;5617;54.046;10.676;2022-09-12T11:35:49;0.90;;;0.90;;
11125;SDS011;5617;54.046;10.676;2022-09-12T11:38:04;1.73;;;0.90;;
11125;SDS011;5617;54.046;10.676;2022-09-12T11:40:25;0.93;;;0.93;;
11125;SDS011;5617;54.046;10.676;2022-09-12T11:42:35;0.90;;;0.90;;
11125;SDS011;5617;54.046;10.676;2022-09-12T11:44:45;1.30;;;1.20;;
11125;SDS011;5617;54.046;10.676;2022-09-12T11:46:56;8.93;;;2.17;;
11125;SDS011;5617;54.046;10.676;2022-09-12T11:49:05;1.97;;;1.23;;
11125;SDS011;5617;54.046;10.676;2022-09-12T11:51:25;1.20;;;1.20;;
11125;SDS011;5617;54.046;10.676;2022-09-12T11:53:35;1.53;;;1.23;;
11125;SDS011;5617;54.046;10.676;2022-09-12T11:55:49;1.00;;;1.00;;
11125;SDS011;5617;54.046;10.676;2022-09-12T11:58:00;1.23;;;1.10;;
11125;SDS011;5617;54.046;10.676;2022-09-12T12:00:14;0.83;;;0.83;;
11125;SDS011;5617;54.046;10.676;2022-09-12T12:02:24;1.93;;;1.13;;
11125;SDS011;5617;54.046;10.676;2022-09-12T12:04:36;6.47;;;2.13;;
11125;SDS011;5617;54.046;10.676;2022-09-12T12:06:50;2.80;;;1.37;;
11125;SDS011;5617;54.046;10.676;2022-09-12T12:09:03;12.30;;;2.60;;
11125;SDS011;5617;54.046;10.676;2022-09-12T12:11:11;5.17;;;1.63;;
11125;SDS011;5617;54.046;10.676;2022-09-12T12:13:21;1.67;;;1.10;;
11125;SDS011;5617;54.046;10.676;2022-09-12T12:15:33;1.27;;;1.20;;
11125;SDS011;5617;54.046;10.676;2022-09-12T12:17:42;1.13;;;1.10;;
11125;SDS011;5617;54.046;10.676;2022-09-12T12:19:55;1.23;;;1.20;;
11125;SDS011;5617;54.046;10.676;2022-09-12T12:22:16;1.93;;;1.43;;
11125;SDS011;5617;54.046;10.676;2022-09-12T12:24:26;1.50;;;1.40;;
11125;SDS011;5617;54.046;10.676;2022-09-12T12:26:42;1.70;;;1.60;;
11125;SDS011;5617;54.046;10.676;2022-09-12T12:28:59;1.77;;;1.67;;
11125;SDS011;5617;54.046;10.676;2022-09-12T12:31:07;1.67;;;1.23;;
11125;SDS011;5617;54.046;10.676;2022-09-12T12:36:01;2.53;;;1.43;;
11125;SDS011;5617;54.046;10.676;2022-09-12T12:38:28;1.20;;;1.10;;
11125;SDS011;5617;54.046;10.676;2022-09-12T12:40:37;1.40;;;1.10;;
11125;SDS011;5617;54.046;10.676;2022-09-12T12:47:54;1.27;;;1.10;;
11125;SDS011;5617;54.046;10.676;2022-09-12T12:50:07;1.03;;;1.03;;
11125;SDS011;5617;54.046;10.676;2022-09-12T12:52:26;1.70;;;1.20;;
11125;SDS011;5617;54.046;10.676;2022-09-12T12:57:15;1.50;;;1.30;;
11125;SDS011;5617;54.046;10.676;2022-09-12T12:59:24;1.10;;;1.10;;
11125;SDS011;5617;54.046;10.676;2022-09-12T13:01:32;1.20;;;1.10;;
11125;SDS011;5617;54.046;10.676;2022-09-12T13:03:46;2.10;;;1.20;;
11125;SDS011;5617;54.046;10.676;2022-09-12T13:06:01;1.27;;;1.20;;
11125;SDS011;5617;54.046;10.676;2022-09-12T13:08:24;1.23;;;1.13;;
11125;SDS011;5617;54.046;10.676;2022-09-12T13:10:37;1.27;;;1.00;;
11125;SDS011;5617;54.046;10.676;2022-09-12T13:12:54;2.13;;;0.90;;
11125;SDS011;5617;54.046;10.676;2022-09-12T13:15:04;0.90;;;0.90;;
11125;SDS011;5617;54.046;10.676;2022-09-12T13:17:50;0.97;;;0.97;;
11125;SDS011;5617;54.046;10.676;2022-09-12T13:20:03;1.00;;;1.00;;
11125;SDS011;5617;54.046;10.676;2022-09-12T13:22:13;1.03;;;0.97;;
11125;SDS011;5617;54.046;10.676;2022-09-12T13:24:21;1.20;;;1.07;;
11125;SDS011;5617;54.046;10.676;2022-09-12T13:26:33;1.30;;;1.00;;
11125;SDS011;5617;54.046;10.676;2022-09-12T13:28:46;1.00;;;0.80;;
11125;SDS011;5617;54.046;10.676;2022-09-12T13:30:56;1.47;;;1.37;;
11125;SDS011;5617;54.046;10.676;2022-09-12T13:33:08;1.00;;;1.00;;
11125;SDS011;5617;54.046;10.676;2022-09-12T13:35:25;1.20;;;1.10;;
11125;SDS011;5617;54.046;10.676;2022-09-12T13:37:44;1.43;;;1.17;;